Time;durP1;ratioP1;P1;durP2;ratioP2;P2;SDS_P1;SDS_P2;PMS_P1;PMS_P2;Temp;Humidity;BMP_temperature;BMP_pressure;BME280_temperature;BME280_humidity;BME280_pressure;Samples;Min_cycle;Max_cycle;Signal;HPM_P1;HPM_P2
2021/07/28 00:02:00;;;;;;;2.88;1.83;;;16.90;94.30;;;;;;5053271;28;20032;-75
2021/07/28 00:04:26;;;;;;;1.75;1.20;;;16.90;94.30;;;;;;5053431;28;20017;-76
2021/07/28 00:06:51;;;;;;;2.25;1.27;;;17.00;94.30;;;;;;5035448;28;20481;-75
2021/07/28 00:09:17;;;;;;;2.10;1.42;;;16.90;94.30;;;;;;5053415;28;20028;-75
2021/07/28 00:11:43;;;;;;;2.22;1.20;;;17.00;94.30;;;;;;5052990;28;20025;-75
2021/07/28 00:14:08;;;;;;;1.15;1.05;;;17.00;94.30;;;;;;5053019;28;20147;-75
2021/07/28 00:16:34;;;;;;;2.55;1.60;;;16.90;94.20;;;;;;5035362;28;20025;-75
2021/07/28 00:24:09;;;;;;;2.83;1.70;;;16.90;94.20;;;;;;5053546;28;20036;-75
2021/07/28 00:26:34;;;;;;;3.00;1.85;;;16.90;94.20;;;;;;5052707;28;20395;-75
2021/07/28 00:29:00;;;;;;;3.10;1.77;;;16.90;94.20;;;;;;5052982;28;20021;-75
2021/07/28 00:31:26;;;;;;;1.65;1.30;;;16.80;94.20;;;;;;5053260;28;20021;-74
2021/07/28 00:33:51;;;;;;;2.20;1.42;;;16.80;94.20;;;;;;5053171;28;20461;-75
2021/07/28 00:36:17;;;;;;;3.33;1.90;;;16.80;94.20;;;;;;5035225;28;20028;-75
2021/07/28 00:38:42;;;;;;;2.90;1.60;;;16.80;94.20;;;;;;5052941;28;20025;-76
2021/07/28 00:41:08;;;;;;;1.83;1.20;;;16.80;94.20;;;;;;5052547;28;20024;-76
2021/07/28 00:43:35;;;;;;;2.33;1.45;;;16.80;94.10;;;;;;5035138;28;20466;-75
2021/07/28 00:46:00;;;;;;;2.17;1.30;;;16.70;94.10;;;;;;5052853;28;20114;-76
2021/07/28 00:48:26;;;;;;;1.98;1.25;;;16.70;94.10;;;;;;5052987;28;20072;-75
2021/07/28 00:50:52;;;;;;;2.80;1.70;;;16.70;94.20;;;;;;5052879;28;20032;-75
2021/07/28 00:53:20;;;;;;;1.83;1.25;;;16.70;94.20;;;;;;5052777;28;20076;-75
2021/07/28 00:55:50;;;;;;;2.30;1.30;;;16.70;94.20;;;;;;5052559;28;20025;-76
2021/07/28 00:58:17;;;;;;;2.75;1.83;;;16.70;94.20;;;;;;5052785;28;20263;-76
2021/07/28 01:00:43;;;;;;;2.47;1.40;;;16.60;94.20;;;;;;5053068;28;20047;-76
2021/07/28 01:03:10;;;;;;;2.35;1.45;;;16.60;94.20;;;;;;5052786;28;20017;-75
2021/07/28 01:05:36;;;;;;;3.78;1.98;;;16.60;94.20;;;;;;5052724;28;20424;-76
2021/07/28 01:08:02;;;;;;;2.92;1.70;;;16.60;94.20;;;;;;5052770;28;20037;-75
2021/07/28 01:10:27;;;;;;;2.20;1.50;;;16.60;94.20;;;;;;5052214;28;20440;-76
2021/07/28 01:12:54;;;;;;;3.10;1.60;;;16.60;94.20;;;;;;5052801;28;20091;-76
2021/07/28 01:15:40;;;;;;;3.45;2.15;;;16.60;94.20;;;;;;5054480;28;20035;-75
2021/07/28 01:18:08;;;;;;;2.45;1.60;;;16.60;94.20;;;;;;5056497;28;20036;-76
2021/07/28 01:20:39;;;;;;;3.08;1.70;;;16.60;94.20;;;;;;5038514;28;20146;-76
2021/07/28 01:23:12;;;;;;;2.97;1.60;;;16.60;94.20;;;;;;5056368;28;20068;-76
2021/07/28 01:25:38;;;;;;;3.50;1.70;;;16.60;94.30;;;;;;5037953;28;20139;-76
2021/07/28 01:28:04;;;;;;;2.92;2.10;;;16.60;94.30;;;;;;5056164;28;20017;-75
2021/07/28 01:30:30;;;;;;;2.60;1.80;;;16.60;94.20;;;;;;5056167;28;20036;-76
2021/07/28 01:32:57;;;;;;;2.47;1.63;;;16.60;94.20;;;;;;5056095;28;20024;-75
2021/07/28 01:35:24;;;;;;;3.85;2.10;;;16.60;94.20;;;;;;5056137;28;20024;-76
2021/07/28 01:37:49;;;;;;;2.65;1.48;;;16.60;94.20;;;;;;5055563;28;20021;-76
2021/07/28 01:40:15;;;;;;;4.13;2.10;;;16.60;94.20;;;;;;5056015;28;20091;-75
2021/07/28 01:42:42;;;;;;;2.42;1.65;;;16.60;94.20;;;;;;5056090;28;20025;-76
2021/07/28 01:45:08;;;;;;;4.10;3.03;;;16.60;94.20;;;;;;5055911;28;20429;-75
2021/07/28 01:47:34;;;;;;;3.17;1.70;;;16.60;94.20;;;;;;5055778;28;20032;-76
2021/07/28 01:49:59;;;;;;;3.40;2.47;;;16.60;94.20;;;;;;5055981;28;20023;-76
2021/07/28 01:52:25;;;;;;;3.72;2.08;;;16.60;94.20;;;;;;5055149;28;20044;-76
2021/07/28 01:54:50;;;;;;;2.55;1.75;;;16.60;94.20;;;;;;5055800;28;20536;-76
2021/07/28 01:57:16;;;;;;;3.22;1.90;;;16.60;94.20;;;;;;5055795;28;20025;-76
2021/07/28 01:59:41;;;;;;;2.65;1.50;;;16.60;94.30;;;;;;5055710;28;20209;-76
2021/07/28 02:02:07;;;;;;;2.97;1.52;;;16.60;94.30;;;;;;5055605;28;20071;-76
2021/07/28 02:04:32;;;;;;;4.03;2.08;;;16.60;94.30;;;;;;5037698;28;20373;-76
2021/07/28 02:06:58;;;;;;;3.63;2.47;;;16.60;94.30;;;;;;5054939;28;20037;-76
2021/07/28 02:09:23;;;;;;;4.00;2.00;;;16.60;94.30;;;;;;5055513;28;20017;-75
2021/07/28 02:11:49;;;;;;;3.88;2.08;;;16.60;94.30;;;;;;5055345;28;20600;-77
2021/07/28 02:14:14;;;;;;;4.43;2.15;;;16.50;94.30;;;;;;5055476;28;20485;-76
2021/07/28 02:16:40;;;;;;;3.60;2.20;;;16.60;94.30;;;;;;5037510;28;20025;-76
2021/07/28 02:19:07;;;;;;;4.55;2.00;;;16.60;94.30;;;;;;5055404;28;20023;-76
2021/07/28 02:21:33;;;;;;;3.75;2.10;;;16.60;94.30;;;;;;5054751;28;20025;-75
2021/07/28 02:23:59;;;;;;;3.22;2.00;;;16.60;94.30;;;;;;5055154;28;20107;-76
2021/07/28 02:26:25;;;;;;;3.50;2.10;;;16.70;94.30;;;;;;5054734;28;20112;-76
2021/07/28 02:28:52;;;;;;;3.90;2.45;;;16.70;94.40;;;;;;5055065;28;20017;-76
2021/07/28 02:31:18;;;;;;;4.05;1.98;;;16.70;94.30;;;;;;5055144;28;20079;-76
2021/07/28 02:33:43;;;;;;;3.92;1.90;;;16.80;94.30;;;;;;5055061;28;20029;-76
2021/07/28 02:36:09;;;;;;;4.05;2.75;;;16.80;94.30;;;;;;5054559;28;20477;-76
2021/07/28 02:38:36;;;;;;;3.97;2.05;;;16.90;94.30;;;;;;5054767;28;20470;-76
2021/07/28 02:41:01;;;;;;;3.85;2.80;;;16.90;94.30;;;;;;5054988;28;20492;-76
2021/07/28 02:43:27;;;;;;;3.30;1.77;;;16.90;94.50;;;;;;5054901;28;20021;-76
2021/07/28 02:45:52;;;;;;;4.05;2.28;;;16.90;94.20;;;;;;5054831;28;20045;-76
2021/07/28 02:48:18;;;;;;;3.50;1.98;;;17.00;94.20;;;;;;5054822;28;20021;-77
2021/07/28 02:50:43;;;;;;;3.53;2.03;;;17.00;94.20;;;;;;5054085;28;20025;-76
2021/07/28 02:53:09;;;;;;;4.10;1.98;;;17.00;94.20;;;;;;5054575;28;20047;-76
2021/07/28 02:55:34;;;;;;;1.98;1.45;;;17.00;94.20;;;;;;5054648;28;20067;-76
2021/07/28 02:58:00;;;;;;;4.05;2.10;;;17.00;94.20;;;;;;5054634;28;20351;-76
2021/07/28 03:00:25;;;;;;;4.00;1.95;;;17.00;94.20;;;;;;5054579;28;20047;-76
2021/07/28 03:02:51;;;;;;;2.55;1.50;;;17.00;94.20;;;;;;5054670;28;20013;-76
2021/07/28 03:05:17;;;;;;;3.03;1.60;;;17.00;94.20;;;;;;5036072;28;20028;-76
2021/07/28 03:07:42;;;;;;;3.60;2.03;;;17.00;94.20;;;;;;5054157;28;20048;-76
2021/07/28 03:10:08;;;;;;;3.85;2.08;;;17.10;94.20;;;;;;5054349;28;20021;-76
2021/07/28 03:12:34;;;;;;;4.93;2.13;;;17.00;94.20;;;;;;5054096;28;20055;-76
2021/07/28 03:14:59;;;;;;;3.17;1.90;;;17.10;94.20;;;;;;5054461;28;20021;-76
2021/07/28 03:17:25;;;;;;;2.53;1.80;;;17.10;94.20;;;;;;5054170;28;20036;-76
2021/07/28 03:19:50;;;;;;;3.90;1.88;;;17.10;94.20;;;;;;5053712;28;20017;-76
2021/07/28 03:22:16;;;;;;;2.72;1.90;;;17.10;94.20;;;;;;5054048;28;20087;-76
2021/07/28 03:24:41;;;;;;;2.97;1.67;;;17.10;94.20;;;;;;5053955;28;20028;-76
2021/07/28 03:27:07;;;;;;;3.45;1.77;;;17.10;94.20;;;;;;5053952;28;20040;-76
2021/07/28 03:29:33;;;;;;;3.25;1.73;;;17.10;94.20;;;;;;5053982;28;20106;-76
2021/07/28 03:31:58;;;;;;;3.65;1.73;;;17.10;94.20;;;;;;5053952;28;20031;-76
2021/07/28 03:34:24;;;;;;;3.30;2.10;;;17.10;94.20;;;;;;5053361;28;20032;-76
2021/07/28 03:36:51;;;;;;;3.75;1.55;;;17.10;94.20;;;;;;5053520;28;20029;-76
2021/07/28 03:39:16;;;;;;;3.53;2.17;;;17.10;94.20;;;;;;5053544;28;20363;-76
2021/07/28 03:41:42;;;;;;;3.40;2.00;;;17.10;94.20;;;;;;5053568;28;20025;-76
2021/07/28 03:44:08;;;;;;;6.38;2.38;;;17.10;94.20;;;;;;5053922;28;20039;-76
2021/07/28 03:46:33;;;;;;;3.50;1.90;;;17.10;94.20;;;;;;5053678;28;20032;-76
2021/07/28 03:48:59;;;;;;;3.45;2.00;;;17.10;94.20;;;;;;5053150;28;20066;-76
2021/07/28 03:51:24;;;;;;;2.60;1.73;;;17.10;94.20;;;;;;5053366;28;20025;-75
2021/07/28 03:53:50;;;;;;;3.38;2.00;;;17.10;94.20;;;;;;5053567;28;20036;-76
2021/07/28 03:56:17;;;;;;;3.85;2.00;;;17.10;94.20;;;;;;5053548;28;20053;-76
2021/07/28 03:58:43;;;;;;;2.33;1.50;;;17.10;94.20;;;;;;5053493;28;20029;-76
2021/07/28 04:01:08;;;;;;;3.05;1.95;;;17.10;94.20;;;;;;5053447;28;20390;-76
2021/07/28 04:03:34;;;;;;;3.55;1.98;;;17.10;94.20;;;;;;5053031;28;20025;-76
2021/07/28 04:05:59;;;;;;;3.88;2.17;;;17.10;94.20;;;;;;5035496;28;20036;-76
2021/07/28 04:08:25;;;;;;;3.63;2.30;;;17.10;94.20;;;;;;5053445;28;20155;-76
2021/07/28 04:10:53;;;;;;;3.83;2.15;;;17.10;94.20;;;;;;5053324;28;20488;-76
2021/07/28 04:13:18;;;;;;;4.75;2.45;;;17.10;94.20;;;;;;5053246;28;20048;-75
2021/07/28 04:15:44;;;;;;;3.05;2.05;;;17.10;94.20;;;;;;5053302;28;20098;-76
2021/07/28 04:18:09;;;;;;;4.53;1.90;;;17.00;94.20;;;;;;5052730;28;20021;-76
2021/07/28 04:20:35;;;;;;;3.55;1.50;;;17.10;94.20;;;;;;5053257;28;20017;-76
2021/07/28 04:23:00;;;;;;;4.70;2.33;;;17.10;94.30;;;;;;5053107;28;20088;-76
2021/07/28 04:25:26;;;;;;;3.33;1.90;;;17.10;94.30;;;;;;5052971;28;20108;-76
2021/07/28 04:27:51;;;;;;;3.40;2.17;;;17.10;94.30;;;;;;5053136;28;20080;-76
2021/07/28 04:30:17;;;;;;;3.83;2.17;;;17.10;94.30;;;;;;5053120;28;20017;-76
2021/07/28 04:32:42;;;;;;;3.83;2.20;;;17.10;94.30;;;;;;5052491;28;20147;-77
2021/07/28 04:35:08;;;;;;;2.85;2.05;;;17.10;94.30;;;;;;5052956;28;20020;-76
2021/07/28 04:37:33;;;;;;;4.18;2.50;;;17.10;94.30;;;;;;5053090;28;20350;-76
2021/07/28 04:40:01;;;;;;;3.97;2.25;;;17.10;94.30;;;;;;5053037;28;20063;-76
2021/07/28 04:42:28;;;;;;;3.28;2.05;;;17.20;94.30;;;;;;5052958;28;20100;-76
2021/07/28 04:44:53;;;;;;;2.83;2.00;;;17.20;94.30;;;;;;5053120;28;20029;-76
2021/07/28 04:47:19;;;;;;;3.85;2.30;;;17.20;94.20;;;;;;5052356;28;20061;-76
2021/07/28 04:49:44;;;;;;;4.60;2.35;;;17.20;94.20;;;;;;5055585;28;20062;-76
2021/07/28 04:52:11;;;;;;;2.95;2.00;;;17.20;94.30;;;;;;5056703;28;20405;-76
2021/07/28 04:54:36;;;;;;;3.30;1.80;;;17.20;94.30;;;;;;5057068;28;20536;-77
2021/07/28 04:57:02;;;;;;;4.20;2.00;;;17.20;94.20;;;;;;5056780;28;20033;-76
2021/07/28 04:59:28;;;;;;;3.25;1.70;;;17.20;94.30;;;;;;5056898;28;20032;-76
2021/07/28 05:01:53;;;;;;;4.20;2.30;;;17.20;94.30;;;;;;5056404;28;20492;-76
2021/07/28 05:04:19;;;;;;;4.15;2.15;;;17.30;94.30;;;;;;5056694;28;20028;-76
2021/07/28 05:06:44;;;;;;;5.97;2.15;;;17.30;94.30;;;;;;5056526;28;20033;-77
2021/07/28 05:09:12;;;;;;;3.90;2.20;;;17.30;94.30;;;;;;5056518;28;20063;-77
2021/07/28 05:11:38;;;;;;;3.45;2.08;;;17.30;94.30;;;;;;5056604;28;20025;-77
2021/07/28 05:14:03;;;;;;;4.25;2.50;;;17.30;94.30;;;;;;5056529;28;20385;-77
2021/07/28 05:16:29;;;;;;;4.30;2.13;;;17.30;94.30;;;;;;5055926;28;20025;-77
2021/07/28 05:18:54;;;;;;;5.80;3.17;;;17.40;94.30;;;;;;5038557;28;20021;-77
2021/07/28 05:21:20;;;;;;;4.53;2.72;;;17.30;94.30;;;;;;5056552;28;20466;-77
2021/07/28 05:23:45;;;;;;;5.50;2.60;;;17.30;94.30;;;;;;5056396;28;20063;-77
2021/07/28 05:26:12;;;;;;;4.60;2.55;;;17.30;94.30;;;;;;5056277;28;20116;-77
2021/07/28 05:28:37;;;;;;;4.53;2.60;;;17.30;94.30;;;;;;5056260;28;20025;-77
2021/07/28 05:31:03;;;;;;;4.07;2.13;;;17.30;94.30;;;;;;5055846;28;20082;-77
2021/07/28 05:33:28;;;;;;;3.38;2.20;;;17.30;94.30;;;;;;5056320;28;20047;-78
2021/07/28 05:35:54;;;;;;;4.53;2.40;;;17.40;94.30;;;;;;5056223;28;20057;-77
2021/07/28 05:38:19;;;;;;;3.40;1.90;;;17.40;94.30;;;;;;5056080;28;20100;-78
2021/07/28 05:40:45;;;;;;;4.20;2.60;;;17.40;94.30;;;;;;5038371;28;20059;-78
2021/07/28 05:43:11;;;;;;;3.25;2.00;;;17.40;94.30;;;;;;5055917;28;20384;-78
2021/07/28 05:45:36;;;;;;;4.95;3.05;;;17.50;94.30;;;;;;5055482;28;20021;-78
2021/07/28 05:48:02;;;;;;;3.30;2.28;;;17.50;94.30;;;;;;5055888;28;20529;-78
2021/07/28 05:50:27;;;;;;;4.28;2.45;;;17.50;94.20;;;;;;5055870;28;20028;-77
2021/07/28 05:52:52;;;;;;;6.32;3.00;;;17.60;94.30;;;;;;5055831;28;20504;-77
2021/07/28 05:55:18;;;;;;;5.05;2.92;;;17.60;94.30;;;;;;5055857;28;20028;-78
2021/07/28 05:57:45;;;;;;;5.20;2.53;;;17.60;94.30;;;;;;5055643;28;20101;-77
2021/07/28 06:00:11;;;;;;;4.85;2.60;;;17.60;94.30;;;;;;5054470;28;20013;-78
2021/07/28 06:02:37;;;;;;;4.47;2.75;;;17.60;94.30;;;;;;5055666;28;20036;-78
2021/07/28 06:05:02;;;;;;;4.60;2.17;;;17.60;94.20;;;;;;5055593;28;20363;-78
2021/07/28 06:07:28;;;;;;;3.65;2.65;;;17.70;94.30;;;;;;5055285;28;20039;-78
2021/07/28 06:09:53;;;;;;;5.18;2.72;;;17.70;94.20;;;;;;5037717;28;20444;-78
2021/07/28 06:12:19;;;;;;;5.03;3.08;;;17.70;94.30;;;;;;5055507;28;20017;-78
2021/07/28 06:14:45;;;;;;;4.43;2.38;;;17.70;94.20;;;;;;5054946;28;20385;-77
2021/07/28 06:17:11;;;;;;;4.40;2.80;;;17.80;94.30;;;;;;5055362;28;20037;-78
2021/07/28 06:19:37;;;;;;;5.32;2.40;;;17.80;94.20;;;;;;5055328;28;20017;-77
2021/07/28 06:22:03;;;;;;;4.63;3.10;;;17.80;94.20;;;;;;5055299;28;20040;-78
2021/07/28 06:24:28;;;;;;;5.00;2.72;;;17.90;94.20;;;;;;5037501;28;20025;-78
2021/07/28 06:26:53;;;;;;;7.00;3.65;;;17.90;94.20;;;;;;5055118;28;20033;-78
2021/07/28 06:29:21;;;;;;;4.75;3.17;;;18.00;94.20;;;;;;5054620;28;20395;-78
2021/07/28 06:31:47;;;;;;;6.00;3.40;;;18.00;94.20;;;;;;5055233;28;20530;-77
2021/07/28 06:34:12;;;;;;;5.22;2.67;;;18.00;94.20;;;;;;5055213;28;20060;-78
2021/07/28 06:36:38;;;;;;;5.53;3.60;;;18.00;94.20;;;;;;5054949;28;20103;-77
2021/07/28 06:39:03;;;;;;;6.93;3.42;;;18.00;94.20;;;;;;5054977;28;20100;-79
2021/07/28 06:41:29;;;;;;;6.28;3.42;;;18.00;94.20;;;;;;5055325;28;20021;-78
2021/07/28 06:43:54;;;;;;;7.53;4.03;;;18.10;94.20;;;;;;5054458;28;20445;-78
2021/07/28 06:46:20;;;;;;;5.20;2.97;;;18.10;94.20;;;;;;5054602;28;20033;-77
2021/07/28 06:48:45;;;;;;;6.82;3.60;;;18.30;94.20;;;;;;5036874;28;20508;-77
2021/07/28 06:51:11;;;;;;;5.07;3.63;;;18.30;94.10;;;;;;5054811;28;20100;-78
2021/07/28 06:53:36;;;;;;;5.72;3.60;;;18.30;94.00;;;;;;5054588;28;20123;-77
2021/07/28 06:56:02;;;;;;;5.38;3.33;;;18.30;94.00;;;;;;5054835;28;20072;-77
2021/07/28 06:58:27;;;;;;;7.10;4.03;;;18.40;94.00;;;;;;5053958;28;20096;-77
2021/07/28 07:00:56;;;;;;;6.70;3.45;;;18.30;94.00;;;;;;5054438;28;20109;-77
2021/07/28 07:03:22;;;;;;;6.05;3.38;;;18.30;94.00;;;;;;5054515;28;20013;-77
2021/07/28 07:05:48;;;;;;;5.50;3.80;;;18.30;94.10;;;;;;5054346;28;20028;-77
2021/07/28 07:08:14;;;;;;;6.63;4.13;;;18.30;94.10;;;;;;5054409;28;20013;-77
2021/07/28 07:10:40;;;;;;;7.30;4.55;;;18.30;94.10;;;;;;5054267;28;20136;-77
2021/07/28 07:13:05;;;;;;;6.97;4.28;;;18.30;94.20;;;;;;5052494;28;20108;-77
2021/07/28 07:15:31;;;;;;;5.85;3.75;;;18.40;94.20;;;;;;5054264;28;20074;-77
2021/07/28 07:17:56;;;;;;;6.80;3.58;;;18.40;94.00;;;;;;5036366;28;20039;-77
2021/07/28 07:20:22;;;;;;;7.20;3.95;;;18.50;94.00;;;;;;5053951;28;20025;-77
2021/07/28 07:22:47;;;;;;;6.40;3.42;;;18.60;94.00;;;;;;5054079;28;20028;-77
2021/07/28 07:25:14;;;;;;;7.43;5.28;;;18.70;93.90;;;;;;5054090;28;20075;-77
2021/07/28 07:27:40;;;;;;;6.80;4.53;;;18.70;93.90;;;;;;5035561;28;20064;-78
2021/07/28 07:30:07;;;;;;;5.82;3.95;;;18.60;93.80;;;;;;5053884;28;20021;-77
2021/07/28 07:32:33;;;;;;;5.97;3.70;;;18.60;93.80;;;;;;5053761;28;20043;-78
2021/07/28 07:34:59;;;;;;;5.38;3.38;;;18.50;93.90;;;;;;5053929;28;20021;-77
2021/07/28 07:37:25;;;;;;;4.93;2.85;;;18.60;93.90;;;;;;5053920;28;20381;-77
2021/07/28 07:39:50;;;;;;;5.03;3.08;;;18.70;93.90;;;;;;5053628;28;20075;-78
2021/07/28 07:42:16;;;;;;;4.10;2.78;;;18.70;93.90;;;;;;5053275;28;20025;-78
2021/07/28 07:44:47;;;;;;;4.72;3.35;;;18.90;93.90;;;;;;5035864;28;20021;-77
2021/07/28 07:47:12;;;;;;;6.05;3.22;;;19.00;93.80;;;;;;5053729;28;20037;-78
2021/07/28 07:49:38;;;;;;;5.28;3.55;;;19.20;93.60;;;;;;5053631;28;20526;-78
2021/07/28 07:52:04;;;;;;;4.35;2.80;;;19.30;93.60;;;;;;5053367;28;20045;-78
2021/07/28 07:54:30;;;;;;;4.10;2.53;;;19.30;93.50;;;;;;5053554;28;20073;-77
2021/07/28 07:56:55;;;;;;;3.88;2.40;;;19.40;93.50;;;;;;5052858;28;20021;-78
2021/07/28 07:59:21;;;;;;;4.10;2.35;;;19.50;93.40;;;;;;5053622;28;20045;-78
2021/07/28 08:01:47;;;;;;;3.28;2.38;;;19.50;93.40;;;;;;5053426;28;20435;-77
2021/07/28 08:04:12;;;;;;;3.47;2.50;;;19.60;93.70;;;;;;5053334;28;20029;-78
2021/07/28 08:06:38;;;;;;;4.35;2.72;;;19.70;93.40;;;;;;5053354;28;20037;-80
2021/07/28 08:09:03;;;;;;;3.45;2.55;;;19.70;93.30;;;;;;5053464;28;20016;-78
2021/07/28 08:11:29;;;;;;;2.85;1.95;;;19.70;93.20;;;;;;5052805;28;20445;-79
2021/07/28 08:13:54;;;;;;;3.70;2.20;;;19.70;93.20;;;;;;5053212;28;20025;-79
2021/07/28 08:16:22;;;;;;;3.47;2.55;;;19.60;93.10;;;;;;5053232;28;20014;-78
2021/07/28 08:18:48;;;;;;;3.22;2.33;;;19.50;93.10;;;;;;5053242;28;20052;-78
2021/07/28 08:21:14;;;;;;;2.80;2.10;;;19.60;93.20;;;;;;5053210;28;20025;-78
2021/07/28 08:23:42;;;;;;;3.05;1.95;;;19.70;93.10;;;;;;5034905;28;20024;-77
2021/07/28 08:26:08;;;;;;;3.80;2.33;;;19.70;92.90;;;;;;5052509;28;20044;-79
2021/07/28 08:28:33;;;;;;;4.50;2.70;;;19.60;92.80;;;;;;5052964;28;20103;-80
2021/07/28 08:30:59;;;;;;;3.53;2.45;;;19.40;92.80;;;;;;5053051;28;20029;-80
2021/07/28 08:33:26;;;;;;;4.25;3.00;;;19.20;93.00;;;;;;5053186;28;20021;-80
2021/07/28 08:35:55;;;;;;;3.47;2.22;;;19.10;93.00;;;;;;5053089;28;20493;-80
2021/07/28 08:38:21;;;;;;;;;;;19.00;93.10;;;;;;5052860;28;20033;-79
2021/07/28 08:40:50;;;;;;;3.92;2.50;;;18.90;93.30;;;;;;5052796;28;19904;-80
2021/07/28 08:43:19;;;;;;;2.90;2.00;;;19.00;93.40;;;;;;5052888;28;20518;-81
2021/07/28 08:45:48;;;;;;;3.10;2.30;;;19.10;93.40;;;;;;5052794;28;20029;-81
2021/07/28 08:48:17;;;;;;;2.70;1.75;;;19.20;93.30;;;;;;5052957;28;20480;-81
2021/07/28 08:50:46;;;;;;;2.35;1.85;;;19.40;93.40;;;;;;5053184;28;20351;-79
2021/07/28 08:53:11;;;;;;;3.22;2.03;;;19.50;93.20;;;;;;5052088;28;20045;-80
2021/07/28 08:55:38;;;;;;;3.17;2.08;;;19.50;93.20;;;;;;5052935;28;20075;-82
2021/07/28 08:58:05;;;;;;;3.17;2.13;;;19.60;93.20;;;;;;5052873;28;20040;-81
2021/07/28 09:00:41;;;;;;;4.38;2.83;;;19.70;93.30;;;;;;5052914;28;20375;-81
2021/07/28 09:03:06;;;;;;;6.22;2.90;;;19.80;93.00;;;;;;5034993;28;20027;-79
2021/07/28 09:05:43;;;;;;;4.80;3.22;;;19.90;93.00;;;;;;5052905;28;20021;-82
2021/07/28 09:08:27;;;;;;;3.35;2.65;;;20.00;92.80;;;;;;5052337;28;20087;-80
2021/07/28 09:11:07;;;;;;;3.85;3.20;;;19.90;92.70;;;;;;5052882;28;20037;-81
2021/07/28 09:13:41;;;;;;;2.90;2.50;;;19.70;92.80;;;;;;5052762;28;20036;-78
2021/07/28 09:16:12;;;;;;;4.05;2.60;;;19.70;92.80;;;;;;5053083;28;20359;-87
2021/07/28 09:18:44;;;;;;;4.50;3.00;;;19.60;92.80;;;;;;5053397;28;20028;-85
2021/07/28 09:21:28;;;;;;;4.35;2.95;;;19.40;92.90;;;;;;5053782;28;20021;-86
2021/07/28 09:24:13;;;;;;;3.47;3.05;;;19.40;93.00;;;;;;5053256;28;20559;-88
2021/07/28 09:26:47;;;;;;;3.33;2.72;;;19.40;93.00;;;;;;5053487;28;20036;-85
2021/07/28 09:29:18;;;;;;;3.30;2.10;;;19.50;93.00;;;;;;5053976;28;20134;-88
2021/07/28 09:31:47;;;;;;;3.70;2.40;;;19.60;93.00;;;;;;5053470;28;20033;-90
2021/07/28 09:34:23;;;;;;;;;;;19.70;93.00;;;;;;5053916;28;20478;-77
2021/07/28 09:36:51;;;;;;;3.13;2.40;;;19.80;93.20;;;;;;5055490;28;19950;-88
2021/07/28 09:39:42;;;;;;;3.30;2.35;;;19.90;93.00;;;;;;5056634;28;20048;-82
2021/07/28 09:42:15;;;;;;;2.33;1.90;;;20.00;92.90;;;;;;5057005;28;20486;-86
2021/07/28 09:44:46;;;;;;;2.67;2.00;;;20.20;93.00;;;;;;5057079;28;20174;-85
2021/07/28 09:47:19;;;;;;;2.40;1.75;;;20.30;92.80;;;;;;5056682;28;20508;-87
2021/07/28 09:49:47;;;;;;;1.75;1.55;;;20.40;92.80;;;;;;5056954;28;20023;-84
2021/07/28 09:52:22;;;;;;;1.60;1.50;;;20.50;92.90;;;;;;5056210;28;20056;-89
2021/07/28 09:54:50;;;;;;;2.03;1.48;;;20.60;92.90;;;;;;5056497;28;20048;-87
2021/07/28 09:57:21;;;;;;;1.98;1.75;;;20.70;92.80;;;;;;5056689;28;20430;-90
2021/07/28 09:59:54;;;;;;;2.40;1.70;;;20.80;92.80;;;;;;5056730;28;20021;-89
2021/07/28 10:02:24;;;;;;;2.67;2.28;;;21.00;92.60;;;;;;5057409;28;20032;-82
2021/07/28 10:04:52;;;;;;;2.45;1.88;;;21.00;92.60;;;;;;5056849;28;20036;-90
2021/07/28 10:07:19;;;;;;;2.40;1.98;;;21.00;92.70;;;;;;5056682;28;20071;-88
2021/07/28 10:10:10;;;;;;;2.38;1.85;;;21.20;92.80;;;;;;5056787;28;20025;-89
2021/07/28 10:12:38;;;;;;;2.90;2.40;;;21.40;92.70;;;;;;5056624;28;20049;-88
2021/07/28 10:15:07;;;;;;;2.67;2.10;;;21.50;92.50;;;;;;5056636;28;20104;-91
2021/07/28 10:17:34;;;;;;;2.40;2.10;;;21.60;92.60;;;;;;5056535;28;20032;-92
2021/07/28 10:20:00;;;;;;;2.30;1.92;;;21.90;92.50;;;;;;5056071;28;20020;-92
2021/07/28 10:22:27;;;;;;;2.50;2.00;;;22.10;92.40;;;;;;5056354;28;20023;-90
2021/07/28 10:24:53;;;;;;;2.40;2.03;;;22.00;92.20;;;;;;5055877;28;20021;-79
2021/07/28 10:27:18;;;;;;;1.90;1.80;;;21.90;92.00;;;;;;5055872;28;20033;-89
2021/07/28 10:29:44;;;;;;;2.35;1.73;;;21.70;92.20;;;;;;5056122;28;20023;-86
2021/07/28 10:32:31;;;;;;;4.00;2.17;;;21.50;92.30;;;;;;5055952;28;20025;-85
2021/07/28 10:35:19;;;;;;;2.65;1.95;;;21.40;92.30;;;;;;5055515;28;20377;-87
2021/07/28 10:37:45;;;;;;;2.58;2.20;;;21.40;92.40;;;;;;5055739;28;20025;-87
2021/07/28 10:40:32;;;;;;;1.70;1.40;;;21.40;92.50;;;;;;5056021;28;20474;-88
2021/07/28 10:43:00;;;;;;;3.58;2.13;;;21.70;92.50;;;;;;5055817;28;20104;-89
2021/07/28 10:45:26;;;;;;;2.20;1.80;;;21.90;92.30;;;;;;5055869;28;20100;-84
2021/07/28 10:47:55;;;;;;;2.25;1.90;;;22.10;92.10;;;;;;5055206;28;20061;-84
2021/07/28 10:50:26;;;;;;;2.70;2.13;;;22.10;91.90;;;;;;5055272;28;20095;-90
2021/07/28 10:52:52;;;;;;;1.70;1.60;;;21.90;92.00;;;;;;5055513;28;20052;-86
2021/07/28 10:55:23;;;;;;;2.15;1.83;;;21.70;92.00;;;;;;5055399;28;20017;-86
2021/07/28 10:58:07;;;;;;;2.60;2.00;;;21.40;92.20;;;;;;5055462;28;20057;-89
2021/07/28 11:00:39;;;;;;;1.88;1.73;;;21.20;92.30;;;;;;5037333;28;20379;-84
2021/07/28 11:03:07;;;;;;;2.20;2.00;;;21.20;92.60;;;;;;5055466;28;20017;-93
2021/07/28 11:05:35;;;;;;;2.80;2.27;;;21.30;92.50;;;;;;5037555;28;20192;-87
2021/07/28 11:08:03;;;;;;;2.47;2.08;;;21.60;92.70;;;;;;5055096;28;20299;-87
2021/07/28 11:10:36;;;;;;;1.70;1.60;;;21.80;92.50;;;;;;5055402;28;20082;-82
2021/07/28 11:13:13;;;;;;;2.00;1.80;;;21.80;92.30;;;;;;5055230;28;20029;-85
2021/07/28 11:15:40;;;;;;;2.10;1.85;;;21.70;92.20;;;;;;5055515;28;20074;-87
2021/07/28 11:18:06;;;;;;;2.25;1.90;;;21.60;92.40;;;;;;5056281;28;20047;-89
2021/07/28 11:20:34;;;;;;;1.95;1.75;;;21.60;92.30;;;;;;5056991;28;20057;-89
2021/07/28 11:23:20;;;;;;;2.50;1.75;;;21.90;92.30;;;;;;5056410;28;20021;-81
2021/07/28 11:25:49;;;;;;;1.50;1.40;;;22.10;92.00;;;;;;5055132;28;20052;-88
2021/07/28 11:28:21;;;;;;;2.15;1.70;;;22.10;92.10;;;;;;5037370;28;20025;-90
2021/07/28 11:30:58;;;;;;;3.33;1.80;;;22.10;92.10;;;;;;5054196;28;20025;-83
2021/07/28 11:33:24;;;;;;;1.52;1.40;;;22.00;91.90;;;;;;5053934;28;20029;-85
2021/07/28 11:35:52;;;;;;;1.98;1.70;;;21.70;92.10;;;;;;5054087;28;20024;-86
2021/07/28 11:38:22;;;;;;;2.28;1.58;;;21.60;92.10;;;;;;5054241;28;20544;-84
2021/07/28 11:40:49;;;;;;;1.85;1.63;;;21.50;92.10;;;;;;5054571;28;20021;-82
2021/07/28 11:43:35;;;;;;;2.65;1.77;;;21.40;92.00;;;;;;5054405;28;20063;-87
2021/07/28 11:46:04;;;;;;;1.92;1.40;;;21.40;92.10;;;;;;5054654;28;20017;-87
2021/07/28 11:48:34;;;;;;;1.83;1.73;;;21.40;92.20;;;;;;5054397;28;20083;-86
2021/07/28 11:51:06;;;;;;;2.40;2.03;;;21.60;92.10;;;;;;5054661;28;20067;-84
2021/07/28 11:53:33;;;;;;;2.05;1.67;;;22.00;91.80;;;;;;5054023;28;20084;-79
2021/07/28 11:56:15;;;;;;;2.03;1.80;;;22.30;91.50;;;;;;5054507;28;20079;-84
2021/07/28 11:58:43;;;;;;;2.10;1.88;;;22.30;91.30;;;;;;5053851;28;20040;-85
2021/07/28 12:01:25;;;;;;;2.28;1.70;;;22.10;91.40;;;;;;5054322;28;20074;-84
2021/07/28 12:04:04;;;;;;;1.63;1.30;;;22.00;91.50;;;;;;5054227;28;20057;-90
2021/07/28 12:06:37;;;;;;;1.90;1.60;;;22.00;91.70;;;;;;5054616;28;20033;-85
2021/07/28 12:09:12;;;;;;;2.72;2.10;;;22.10;91.80;;;;;;5054475;28;20086;-93
2021/07/28 12:11:54;;;;;;;2.10;1.90;;;22.30;91.40;;;;;;5054323;28;20111;-87
2021/07/28 12:14:39;;;;;;;2.65;1.90;;;22.60;91.50;;;;;;5054330;28;20086;-94
2021/07/28 12:17:20;;;;;;;2.72;1.83;;;23.00;91.10;;;;;;5054797;28;20032;-88
2021/07/28 12:20:04;;;;;;;1.60;1.40;;;23.20;91.00;;;;;;5054891;28;20014;-93
2021/07/28 12:22:32;;;;;;;2.13;1.92;;;23.40;91.00;;;;;;5055543;28;20025;-89
2021/07/28 12:25:14;;;;;;;1.90;1.52;;;23.60;90.70;;;;;;5055260;28;20073;-92
2021/07/28 12:28:06;;;;;;;1.55;1.45;;;23.50;90.80;;;;;;5055273;28;20029;-88
2021/07/28 12:30:37;;;;;;;1.40;1.30;;;23.30;91.10;;;;;;5039961;28;20441;-89
2021/07/28 12:33:15;;;;;;;1.70;1.60;;;23.20;91.00;;;;;;5060840;28;20085;-96
2021/07/28 12:35:50;;;;;;;2.08;1.90;;;23.10;91.00;;;;;;5058560;28;20029;-88
2021/07/28 12:38:23;;;;;;;1.48;1.35;;;22.90;91.10;;;;;;5056059;28;20116;-85
2021/07/28 12:40:52;;;;;;;1.42;1.33;;;22.80;91.10;;;;;;5054370;28;20021;-88
2021/07/28 12:43:18;;;;;;;;;;;22.60;91.20;;;;;;5055146;28;20017;-89
2021/07/28 12:45:44;;;;;;;1.20;1.10;;;22.40;91.60;;;;;;5054021;28;20384;-95
2021/07/28 12:48:10;;;;;;;1.20;1.10;;;22.10;91.50;;;;;;5054475;28;20041;-89
2021/07/28 12:50:38;;;;;;;1.30;1.20;;;22.00;91.60;;;;;;5054203;28;20048;-87
2021/07/28 12:53:04;;;;;;;1.40;1.30;;;21.90;91.50;;;;;;5054103;28;20053;-87
2021/07/28 12:55:31;;;;;;;2.22;1.70;;;21.80;91.60;;;;;;5054372;28;20025;-85
2021/07/28 12:57:56;;;;;;;1.63;1.35;;;21.80;91.60;;;;;;5053705;28;20382;-87